createdAt,value
2023-03-25T00:01:19.658Z,10.54
2023-03-25T00:03:50.446Z,10.64
2023-03-25T00:06:17.981Z,10.67
2023-03-25T00:08:45.480Z,10.63
2023-03-25T00:11:12.826Z,10.77
2023-03-25T00:13:40.803Z,10.70
2023-03-25T00:16:10.298Z,10.86
2023-03-25T00:18:37.847Z,10.70
2023-03-25T00:21:10.761Z,10.75
2023-03-25T00:23:39.448Z,10.82
2023-03-25T00:26:07.631Z,10.78
2023-03-25T00:28:37.190Z,10.84
2023-03-25T00:31:07.790Z,11.13
2023-03-25T00:33:35.617Z,11.03
2023-03-25T00:36:04.648Z,11.17
2023-03-25T00:38:35.184Z,11.16
2023-03-25T00:41:25.463Z,10.92
2023-03-25T00:44:00.062Z,10.80
2023-03-25T00:46:29.800Z,10.90
2023-03-25T00:48:58.538Z,11.05
2023-03-25T00:51:26.650Z,11.07
2023-03-25T00:53:56.909Z,11.12
2023-03-25T00:56:24.592Z,11.27
2023-03-25T00:58:52.376Z,11.10
2023-03-25T01:01:29.216Z,10.96
2023-03-25T01:03:58.893Z,11.01
2023-03-25T01:06:28.929Z,10.88
2023-03-25T01:08:57.565Z,11.18
2023-03-25T01:11:27.972Z,10.94
2023-03-25T01:13:57.156Z,10.92
2023-03-25T01:16:24.488Z,11.06
2023-03-25T01:18:51.940Z,11.18
2023-03-25T01:21:19.249Z,11.03
2023-03-25T01:23:46.516Z,11.30
2023-03-25T01:26:13.996Z,11.09
2023-03-25T01:28:42.856Z,11.04
2023-03-25T01:31:12.810Z,10.78
2023-03-25T01:33:40.627Z,10.72
2023-03-25T01:36:13.036Z,10.81
2023-03-25T01:38:41.014Z,10.72
2023-03-25T01:41:09.726Z,10.76
2023-03-25T01:43:37.390Z,10.93
2023-03-25T01:46:04.986Z,10.90
2023-03-25T01:48:37.909Z,10.91
2023-03-25T01:51:17.582Z,10.83
2023-03-25T01:53:45.008Z,10.90
2023-03-25T01:56:16.488Z,11.28
2023-03-25T01:58:43.992Z,10.94
2023-03-25T02:01:16.682Z,10.82
2023-03-25T02:03:51.213Z,10.78
2023-03-25T02:06:25.156Z,10.93
2023-03-25T02:08:53.571Z,10.73
2023-03-25T02:11:20.860Z,10.77
2023-03-25T02:13:48.136Z,10.69
2023-03-25T02:16:22.655Z,10.68
2023-03-25T02:19:18.492Z,10.44
2023-03-25T02:21:50.187Z,10.56
2023-03-25T02:24:43.298Z,10.59
2023-03-25T02:27:45.905Z,10.54
2023-03-25T02:30:34.689Z,10.83
2023-03-25T02:33:28.796Z,10.62
2023-03-25T02:36:30.069Z,10.54
2023-03-25T02:39:01.923Z,10.52
2023-03-25T02:41:39.965Z,10.66
2023-03-25T02:44:21.848Z,10.74
2023-03-25T02:46:53.384Z,10.68
2023-03-25T02:49:28.489Z,10.70
2023-03-25T02:51:59.634Z,10.56
2023-03-25T02:54:27.812Z,10.41
2023-03-25T02:56:57.587Z,10.79
2023-03-25T02:59:33.149Z,10.78
2023-03-25T03:02:03.757Z,10.94
2023-03-25T03:04:31.324Z,10.91
2023-03-25T03:06:58.661Z,11.05
2023-03-25T03:09:40.616Z,11.04
2023-03-25T03:12:36.603Z,10.91
2023-03-25T03:15:09.275Z,10.86
2023-03-25T03:18:12.991Z,10.86
2023-03-25T03:21:06.914Z,10.95
2023-03-25T03:23:49.300Z,10.83
2023-03-25T03:26:27.539Z,10.85
2023-03-25T03:29:05.814Z,10.84
2023-03-25T03:32:05.544Z,10.80
2023-03-25T03:34:44.836Z,10.81
2023-03-25T03:37:15.450Z,10.92
2023-03-25T03:39:44.470Z,11.01
2023-03-25T03:42:27.116Z,10.98
2023-03-25T03:44:58.842Z,10.75
2023-03-25T03:47:32.362Z,10.83
2023-03-25T03:50:04.869Z,10.65
2023-03-25T03:52:38.717Z,10.91
2023-03-25T03:55:14.077Z,10.92
2023-03-25T03:58:09.741Z,10.88
2023-03-25T04:00:43.087Z,10.90
2023-03-25T04:03:24.570Z,10.95
2023-03-25T04:05:56.453Z,10.72
2023-03-25T04:08:31.920Z,10.71
2023-03-25T04:11:03.873Z,10.64
2023-03-25T04:13:35.409Z,10.90
2023-03-25T04:16:03.174Z,10.80
2023-03-25T04:18:33.731Z,10.83
2023-03-25T04:21:01.301Z,10.83
2023-03-25T04:23:32.285Z,10.98
2023-03-25T04:26:03.018Z,10.97
2023-03-25T04:28:31.840Z,10.95
2023-03-25T04:31:00.749Z,11.06
2023-03-25T04:33:32.075Z,10.80
2023-03-25T04:36:02.097Z,11.08
2023-03-25T04:38:29.739Z,11.11
2023-03-25T04:40:58.288Z,11.11
2023-03-25T04:43:25.684Z,10.92
2023-03-25T04:45:55.783Z,11.03
2023-03-25T04:48:24.939Z,11.16
2023-03-25T04:50:52.899Z,11.29
2023-03-25T04:53:20.403Z,11.22
2023-03-25T04:55:50.614Z,11.15
2023-03-25T04:58:18.269Z,10.99
2023-03-25T05:00:50.170Z,10.94
2023-03-25T05:03:23.990Z,11.02
2023-03-25T05:05:53.525Z,11.01
2023-03-25T05:08:23.475Z,11.14
2023-03-25T05:10:50.717Z,11.19
2023-03-25T05:13:18.432Z,11.56
2023-03-25T05:15:45.638Z,11.19
2023-03-25T05:18:14.873Z,11.19
2023-03-25T05:20:45.066Z,11.08
2023-03-25T05:23:17.710Z,11.17
2023-03-25T05:25:47.450Z,11.20
2023-03-25T05:28:17.882Z,11.02
2023-03-25T05:30:46.557Z,11.01
2023-03-25T05:33:16.305Z,10.86
2023-03-25T05:35:44.601Z,10.66
2023-03-25T05:38:13.552Z,10.68
2023-03-25T05:40:41.316Z,11.00
2023-03-25T05:43:08.866Z,11.04
2023-03-25T05:45:36.547Z,11.23
2023-03-25T05:48:05.163Z,11.06
2023-03-25T05:50:32.586Z,11.09
2023-03-25T05:53:00.187Z,11.13
2023-03-25T05:55:28.026Z,11.25
2023-03-25T05:57:56.987Z,10.80
2023-03-25T06:00:24.655Z,10.80
2023-03-25T06:02:52.316Z,10.82
2023-03-25T06:05:23.881Z,11.05
2023-03-25T06:07:52.182Z,10.88
2023-03-25T06:10:19.707Z,10.90
2023-03-25T06:12:47.789Z,10.57
2023-03-25T06:15:21.460Z,10.62
2023-03-25T06:17:48.744Z,10.57
2023-03-25T06:20:16.696Z,10.58
2023-03-25T06:22:45.578Z,10.61
2023-03-25T06:25:17.641Z,10.51
2023-03-25T06:27:46.240Z,10.63
2023-03-25T06:30:15.955Z,10.37
2023-03-25T06:32:43.514Z,10.38
2023-03-25T06:35:11.831Z,10.38
2023-03-25T06:37:39.415Z,10.30
2023-03-25T06:40:13.832Z,10.20
2023-03-25T06:42:42.190Z,10.23
2023-03-25T06:45:33.477Z,10.47
2023-03-25T06:48:06.193Z,10.78
2023-03-25T06:50:33.587Z,11.00
2023-03-25T06:53:00.901Z,10.83
2023-03-25T06:55:28.167Z,10.74
2023-03-25T06:57:56.476Z,10.58
2023-03-25T07:00:26.797Z,10.74
2023-03-25T07:02:55.101Z,11.02
2023-03-25T07:05:22.621Z,11.08
2023-03-25T07:07:50.062Z,10.92
2023-03-25T07:10:17.469Z,10.71
2023-03-25T07:12:44.793Z,10.75
2023-03-25T07:15:12.074Z,10.81
2023-03-25T07:17:43.098Z,10.97
2023-03-25T07:20:12.973Z,11.08
2023-03-25T07:22:43.362Z,11.25
2023-03-25T07:25:10.700Z,11.27
2023-03-25T07:27:38.034Z,11.02
2023-03-25T07:30:10.156Z,11.00
2023-03-25T07:32:37.828Z,11.22
2023-03-25T07:35:06.422Z,11.17
2023-03-25T07:37:33.653Z,11.32
2023-03-25T07:40:01.215Z,11.15
2023-03-25T07:42:28.563Z,11.03
2023-03-25T07:45:14.310Z,11.02
2023-03-25T07:47:43.576Z,10.85
2023-03-25T07:50:11.198Z,11.00
2023-03-25T07:52:38.566Z,11.07
2023-03-25T07:55:06.478Z,11.19
2023-03-25T07:57:33.918Z,11.21
2023-03-25T08:00:01.284Z,11.49
2023-03-25T08:02:28.780Z,11.85
2023-03-25T08:04:57.514Z,12.15
2023-03-25T08:07:25.983Z,12.35
2023-03-25T08:09:56.950Z,12.46
2023-03-25T08:12:24.473Z,12.19
2023-03-25T08:14:51.940Z,12.38
2023-03-25T08:17:19.227Z,12.43
2023-03-25T08:19:46.606Z,12.43
2023-03-25T08:22:13.974Z,12.38
2023-03-25T08:24:41.590Z,12.17
2023-03-25T08:27:16.197Z,12.27
2023-03-25T08:29:44.767Z,12.23
2023-03-25T08:32:11.997Z,12.22
2023-03-25T08:34:41.910Z,12.08
2023-03-25T08:37:10.027Z,12.24
2023-03-25T08:39:40.064Z,12.22
2023-03-25T08:42:08.052Z,12.34
2023-03-25T08:44:35.634Z,12.39
2023-03-25T08:47:02.982Z,12.66
2023-03-25T08:49:30.483Z,12.75
2023-03-25T08:51:59.198Z,12.73
2023-03-25T08:54:27.300Z,12.78
2023-03-25T08:56:54.985Z,13.05
2023-03-25T08:59:22.295Z,13.02
2023-03-25T09:01:50.074Z,12.72
2023-03-25T09:04:17.382Z,12.80
2023-03-25T09:06:47.936Z,12.59
2023-03-25T09:09:31.960Z,12.53
2023-03-25T09:11:59.923Z,12.68
2023-03-25T09:14:27.333Z,12.55
2023-03-25T09:16:54.576Z,12.65
2023-03-25T09:19:21.892Z,12.52
2023-03-25T09:21:49.249Z,12.70
2023-03-25T09:24:16.546Z,12.93
2023-03-25T09:26:43.867Z,12.80
2023-03-25T09:29:11.168Z,12.78
2023-03-25T09:31:38.570Z,12.99
2023-03-25T09:34:06.470Z,12.97
2023-03-25T09:36:33.804Z,12.99
2023-03-25T09:39:01.344Z,12.79
2023-03-25T09:41:31.386Z,12.80
2023-03-25T09:44:06.953Z,12.68
2023-03-25T09:46:37.760Z,12.71
2023-03-25T09:49:06.045Z,12.68
2023-03-25T09:51:35.991Z,12.85
2023-03-25T09:54:25.982Z,13.01
2023-03-25T09:56:55.415Z,12.99
2023-03-25T09:59:24.112Z,13.03
2023-03-25T10:02:21.978Z,13.03
2023-03-25T10:05:11.316Z,12.87
2023-03-25T10:07:38.465Z,12.71
2023-03-25T10:10:13.559Z,12.81
2023-03-25T10:13:01.879Z,13.02
2023-03-25T10:16:04.581Z,13.35
2023-03-25T10:18:49.355Z,13.10
2023-03-25T10:21:24.473Z,13.35
2023-03-25T10:24:07.067Z,13.29
2023-03-25T10:27:04.222Z,13.21
2023-03-25T10:29:36.646Z,13.52
2023-03-25T10:32:07.705Z,13.56
2023-03-25T10:34:42.897Z,13.63
2023-03-25T10:37:12.485Z,13.62
2023-03-25T10:39:45.276Z,13.66
2023-03-25T10:42:29.298Z,13.87
2023-03-25T10:44:56.733Z,13.74
2023-03-25T10:47:27.214Z,13.90
2023-03-25T10:49:55.394Z,14.07
2023-03-25T10:52:22.906Z,14.27
2023-03-25T10:54:53.080Z,14.22
2023-03-25T10:57:21.942Z,14.58
2023-03-25T10:59:58.202Z,14.42
2023-03-25T11:02:28.157Z,14.23
2023-03-25T11:05:01.852Z,14.47
2023-03-25T11:07:37.584Z,14.84
2023-03-25T11:10:17.465Z,14.87
2023-03-25T11:12:48.498Z,15.06
2023-03-25T11:15:20.246Z,14.73
2023-03-25T11:17:48.839Z,14.73
2023-03-25T11:20:21.731Z,14.71
2023-03-25T11:22:51.953Z,14.86
2023-03-25T11:25:25.912Z,15.02
2023-03-25T11:27:56.542Z,15.07
2023-03-25T11:30:26.081Z,15.03
2023-03-25T11:33:27.209Z,14.81
2023-03-25T11:35:54.556Z,14.55
2023-03-25T11:38:32.418Z,14.51
2023-03-25T11:41:00.108Z,14.34
2023-03-25T11:43:33.640Z,14.04
2023-03-25T11:46:12.797Z,14.17
2023-03-25T11:48:42.062Z,14.23
2023-03-25T11:51:24.860Z,13.65
2023-03-25T11:53:58.071Z,13.72
2023-03-25T11:56:46.670Z,13.89
2023-03-25T11:59:44.810Z,13.96
2023-03-25T12:02:31.850Z,13.97
2023-03-25T12:05:02.884Z,14.06
2023-03-25T12:07:30.442Z,13.99
2023-03-25T12:09:59.846Z,14.05
2023-03-25T12:12:33.162Z,14.24
2023-03-25T12:15:47.411Z,14.16
2023-03-25T12:19:08.627Z,14.32
2023-03-25T12:21:42.687Z,14.65
2023-03-25T12:24:18.754Z,14.38
2023-03-25T12:27:05.035Z,14.60
2023-03-25T12:29:47.539Z,14.48
2023-03-25T12:32:29.678Z,14.10
2023-03-25T12:35:04.000Z,13.83
2023-03-25T12:37:31.352Z,14.15
2023-03-25T12:40:09.879Z,13.97
2023-03-25T12:42:47.482Z,13.92
2023-03-25T12:45:39.866Z,14.03
2023-03-25T12:48:10.562Z,14.02
2023-03-25T12:50:46.911Z,14.02
2023-03-25T12:53:27.916Z,14.10
2023-03-25T12:56:14.370Z,14.50
2023-03-25T12:58:55.971Z,14.47
2023-03-25T13:01:58.148Z,14.46
2023-03-25T13:04:49.206Z,14.46
2023-03-25T13:07:19.533Z,14.73
2023-03-25T13:10:23.798Z,14.69
2023-03-25T13:12:56.431Z,14.40
2023-03-25T13:15:28.074Z,14.36
2023-03-25T13:18:12.314Z,14.70
2023-03-25T13:20:43.318Z,14.97
2023-03-25T13:23:17.776Z,14.58
2023-03-25T13:25:49.585Z,14.06
2023-03-25T13:28:22.984Z,13.82
2023-03-25T13:30:50.722Z,14.20
2023-03-25T13:33:30.560Z,14.22
2023-03-25T13:36:37.981Z,14.60
2023-03-25T13:39:15.970Z,14.62
2023-03-25T13:41:52.314Z,14.91
2023-03-25T13:44:41.528Z,14.95
2023-03-25T13:47:19.665Z,15.16
2023-03-25T13:49:54.156Z,15.04
2023-03-25T13:52:22.118Z,15.01
2023-03-25T13:54:57.065Z,15.15
2023-03-25T13:57:30.172Z,15.26
2023-03-25T14:00:10.278Z,15.52
2023-03-25T14:03:11.085Z,15.26
2023-03-25T14:05:51.064Z,15.15
2023-03-25T14:08:36.841Z,15.16
2023-03-25T14:11:17.553Z,14.86
2023-03-25T14:13:55.831Z,14.88
2023-03-25T14:16:31.532Z,15.13
2023-03-25T14:19:03.038Z,15.33
2023-03-25T14:21:34.598Z,15.12
2023-03-25T14:24:18.861Z,15.10
2023-03-25T14:26:49.666Z,15.42
2023-03-25T14:29:35.686Z,14.95
2023-03-25T14:32:32.330Z,14.82
2023-03-25T14:35:34.212Z,14.68
2023-03-25T14:38:08.343Z,14.91
2023-03-25T14:40:47.406Z,15.32
2023-03-25T14:43:34.514Z,15.38
2023-03-25T14:46:06.392Z,15.41
2023-03-25T14:48:37.991Z,15.04
2023-03-25T14:51:10.893Z,14.94
2023-03-25T14:53:38.650Z,15.20
2023-03-25T14:56:11.726Z,14.92
2023-03-25T14:58:39.455Z,14.95
2023-03-25T15:01:11.506Z,14.80
2023-03-25T15:03:42.687Z,14.83
2023-03-25T15:06:17.021Z,15.14
2023-03-25T15:08:56.572Z,15.10
2023-03-25T15:11:33.473Z,15.15
2023-03-25T15:14:03.949Z,15.49
2023-03-25T15:16:47.657Z,15.73
2023-03-25T15:19:16.767Z,15.71
2023-03-25T15:22:01.429Z,15.58
2023-03-25T15:24:33.429Z,15.55
2023-03-25T15:27:29.627Z,15.77
2023-03-25T15:30:31.221Z,15.28
2023-03-25T15:33:31.023Z,15.23
2023-03-25T15:36:36.342Z,14.97
2023-03-25T15:39:31.623Z,14.86
2023-03-25T15:42:13.179Z,15.22
2023-03-25T15:45:09.774Z,15.16
2023-03-25T15:48:02.811Z,15.00
2023-03-25T15:51:06.070Z,15.37
2023-03-25T15:53:49.453Z,15.42
2023-03-25T15:56:22.042Z,15.21
2023-03-25T15:59:07.073Z,15.22
2023-03-25T16:01:36.112Z,15.08
2023-03-25T16:04:11.866Z,15.12
2023-03-25T16:06:46.954Z,15.09
2023-03-25T16:09:19.360Z,15.26
2023-03-25T16:11:50.707Z,15.12
2023-03-25T16:14:21.905Z,15.03
2023-03-25T16:16:57.116Z,15.00
2023-03-25T16:19:28.056Z,15.14
2023-03-25T16:21:55.491Z,15.38
2023-03-25T16:24:26.963Z,15.39
2023-03-25T16:26:54.435Z,15.39
2023-03-25T16:29:23.836Z,15.60
2023-03-25T16:31:57.825Z,15.80
2023-03-25T16:34:27.649Z,15.97
2023-03-25T16:36:57.354Z,15.89
2023-03-25T16:39:27.160Z,15.77
2023-03-25T16:42:07.861Z,15.59
2023-03-25T16:44:35.637Z,15.86
2023-03-25T16:47:03.444Z,15.67
2023-03-25T16:49:35.021Z,15.69
2023-03-25T16:52:09.418Z,15.69
2023-03-25T16:54:43.908Z,15.65
2023-03-25T16:57:17.458Z,15.81
2023-03-25T16:59:47.667Z,15.51
2023-03-25T17:02:27.010Z,15.38
2023-03-25T17:04:58.186Z,15.70
2023-03-25T17:07:27.932Z,15.95
2023-03-25T17:09:58.300Z,15.66
2023-03-25T17:12:27.918Z,15.72
2023-03-25T17:15:07.159Z,15.45
2023-03-25T17:17:51.457Z,15.64
2023-03-25T17:20:23.269Z,15.55
2023-03-25T17:23:08.255Z,15.36
2023-03-25T17:25:48.803Z,15.37
2023-03-25T17:28:40.500Z,15.51
2023-03-25T17:31:28.108Z,15.13
2023-03-25T17:34:20.057Z,15.14
2023-03-25T17:36:48.880Z,15.20
2023-03-25T17:39:30.605Z,15.10
2023-03-25T17:42:05.972Z,15.14
2023-03-25T17:44:39.868Z,15.05
2023-03-25T17:47:10.583Z,15.33
2023-03-25T17:49:37.890Z,15.31
2023-03-25T17:52:05.286Z,15.33
2023-03-25T17:54:32.678Z,15.46
2023-03-25T17:57:00.065Z,15.18
2023-03-25T17:59:27.728Z,15.19
2023-03-25T18:01:55.153Z,15.23
2023-03-25T18:04:22.553Z,15.30
2023-03-25T18:06:50.139Z,15.53
2023-03-25T18:09:20.552Z,14.92
2023-03-25T18:11:50.785Z,15.16
2023-03-25T18:14:18.646Z,15.22
2023-03-25T18:16:46.325Z,15.18
2023-03-25T18:19:17.445Z,14.95
2023-03-25T18:21:45.535Z,14.75
2023-03-25T18:24:13.805Z,14.85
2023-03-25T18:26:43.536Z,14.95
2023-03-25T18:29:16.945Z,14.94
2023-03-25T18:31:44.316Z,14.87
2023-03-25T18:34:13.195Z,14.62
2023-03-25T18:36:41.666Z,14.61
2023-03-25T18:39:17.340Z,14.60
2023-03-25T18:41:44.979Z,14.78
2023-03-25T18:44:13.135Z,14.57
2023-03-25T18:46:40.979Z,14.59
2023-03-25T18:49:16.940Z,14.59
2023-03-25T18:51:44.829Z,14.73
2023-03-25T18:54:12.687Z,14.70
2023-03-25T18:56:43.386Z,14.45
2023-03-25T18:59:12.106Z,14.46
2023-03-25T19:01:39.444Z,14.33
2023-03-25T19:04:06.874Z,14.26
2023-03-25T19:06:34.330Z,14.37
2023-03-25T19:09:01.855Z,14.20
2023-03-25T19:11:30.648Z,14.16
2023-03-25T19:13:58.035Z,14.35
2023-03-25T19:16:25.701Z,14.27
2023-03-25T19:18:53.936Z,14.14
2023-03-25T19:21:22.425Z,14.23
2023-03-25T19:23:49.801Z,14.35
2023-03-25T19:26:17.136Z,14.22
2023-03-25T19:28:44.509Z,14.32
2023-03-25T19:31:15.688Z,14.20
2023-03-25T19:33:43.291Z,14.20
2023-03-25T19:36:15.981Z,14.28
2023-03-25T19:38:43.296Z,14.32
2023-03-25T19:41:12.592Z,14.31
2023-03-25T19:43:40.077Z,14.23
2023-03-25T19:46:07.477Z,14.38
2023-03-25T19:48:35.526Z,14.05
2023-03-25T19:51:03.254Z,14.04
2023-03-25T19:53:30.552Z,14.03
2023-03-25T19:56:05.689Z,14.28
2023-03-25T19:58:34.846Z,14.33
2023-03-25T20:01:02.311Z,13.99
2023-03-25T20:03:32.256Z,13.93
2023-03-25T20:06:02.284Z,13.97
2023-03-25T20:08:30.545Z,13.97
2023-03-25T20:10:58.190Z,13.80
2023-03-25T20:13:25.835Z,13.91
2023-03-25T20:15:53.589Z,13.85
2023-03-25T20:18:21.365Z,13.82
2023-03-25T20:20:48.725Z,13.89
2023-03-25T20:23:16.135Z,13.98
2023-03-25T20:25:43.745Z,13.95
2023-03-25T20:28:11.538Z,13.89
2023-03-25T20:30:39.157Z,13.78
2023-03-25T20:33:06.535Z,13.72
2023-03-25T20:35:35.565Z,13.86
2023-03-25T20:38:03.530Z,13.80
2023-03-25T20:40:43.639Z,14.01
2023-03-25T20:43:16.313Z,13.73
2023-03-25T20:45:43.843Z,13.87
2023-03-25T20:48:11.470Z,13.67
2023-03-25T20:50:38.995Z,13.69
2023-03-25T20:53:06.766Z,13.56
2023-03-25T20:55:34.054Z,13.37
2023-03-25T20:58:01.651Z,13.45
2023-03-25T21:00:29.607Z,13.64
2023-03-25T21:02:57.779Z,13.63
2023-03-25T21:05:27.143Z,13.71
2023-03-25T21:07:54.538Z,13.91
2023-03-25T21:10:21.922Z,13.87
2023-03-25T21:12:49.236Z,13.90
2023-03-25T21:15:16.542Z,13.96
2023-03-25T21:17:44.238Z,14.05
2023-03-25T21:20:12.214Z,14.09
2023-03-25T21:22:43.140Z,14.05
2023-03-25T21:25:11.669Z,14.08
2023-03-25T21:27:40.040Z,14.20
2023-03-25T21:30:09.804Z,14.22
2023-03-25T21:32:40.528Z,13.87
2023-03-25T21:35:09.333Z,13.55
2023-03-25T21:37:40.348Z,13.13
2023-03-25T21:40:11.206Z,13.32
2023-03-25T21:42:41.441Z,13.46
2023-03-25T21:45:11.514Z,13.51
2023-03-25T21:47:40.066Z,13.55
2023-03-25T21:50:10.453Z,13.21
2023-03-25T21:52:43.476Z,13.33
2023-03-25T21:55:11.327Z,13.30
2023-03-25T21:57:39.996Z,13.45
2023-03-25T22:00:08.617Z,13.48
2023-03-25T22:02:43.640Z,13.18
2023-03-25T22:05:12.911Z,13.27
2023-03-25T22:07:40.775Z,13.22
2023-03-25T22:10:09.900Z,13.44
2023-03-25T22:12:37.176Z,13.34
2023-03-25T22:15:04.695Z,13.34
2023-03-25T22:17:32.048Z,13.53
2023-03-25T22:19:59.332Z,13.20
2023-03-25T22:22:26.639Z,13.07
2023-03-25T22:24:53.991Z,13.31
2023-03-25T22:27:21.414Z,13.20
2023-03-25T22:29:48.616Z,13.24
2023-03-25T22:32:16.278Z,13.13
2023-03-25T22:34:43.576Z,13.14
2023-03-25T22:37:10.891Z,13.07
2023-03-25T22:39:39.086Z,13.32
2023-03-25T22:42:06.451Z,13.29
2023-03-25T22:44:33.779Z,13.18
2023-03-25T22:47:01.103Z,13.18
2023-03-25T22:49:28.580Z,13.21
2023-03-25T22:51:56.017Z,13.10
2023-03-25T22:54:23.671Z,13.29
2023-03-25T22:56:51.153Z,13.30
2023-03-25T22:59:18.560Z,13.32
2023-03-25T23:01:45.994Z,13.14
2023-03-25T23:04:13.721Z,13.24
2023-03-25T23:06:41.883Z,13.18
2023-03-25T23:09:10.408Z,13.32
2023-03-25T23:11:38.260Z,13.03
2023-03-25T23:14:13.068Z,12.88
2023-03-25T23:16:41.806Z,13.11
2023-03-25T23:19:10.177Z,12.89
2023-03-25T23:21:38.405Z,13.07
2023-03-25T23:24:06.039Z,12.76
2023-03-25T23:26:39.320Z,12.70
2023-03-25T23:29:09.578Z,12.86
2023-03-25T23:31:38.395Z,12.67
2023-03-25T23:34:08.055Z,12.78
2023-03-25T23:36:36.860Z,12.44
2023-03-25T23:39:07.390Z,12.41
2023-03-25T23:41:35.456Z,12.72
2023-03-25T23:44:03.459Z,12.71
2023-03-25T23:46:31.273Z,12.67
2023-03-25T23:49:05.699Z,12.61
2023-03-25T23:51:36.409Z,12.61
2023-03-25T23:54:05.738Z,12.72
2023-03-25T23:56:33.426Z,12.51
2023-03-25T23:59:01.518Z,12.30
